sensor_id;sensor_type;location;lat;lon;timestamp;pressure;altitude;pressure_sealevel;temperature;humidity
46392;BME280;32098;49.448;7.904;2023-05-03T00:02:15;99121.06;;;6.78;64.92
46392;BME280;32098;49.448;7.904;2023-05-03T00:04:43;99131.31;;;6.81;64.65
46392;BME280;32098;49.448;7.904;2023-05-03T00:07:12;99013.56;;;6.23;64.01
46392;BME280;32098;49.448;7.904;2023-05-03T00:09:40;99028.19;;;6.19;64.60
46392;BME280;32098;49.448;7.904;2023-05-03T00:12:07;99037.50;;;6.15;65.34
46392;BME280;32098;49.448;7.904;2023-05-03T00:14:35;99054.59;;;6.27;65.46
46392;BME280;32098;49.448;7.904;2023-05-03T00:17:03;99127.69;;;6.82;65.08
46392;BME280;32098;49.448;7.904;2023-05-03T00:19:30;99028.84;;;6.21;64.77
46392;BME280;32098;49.448;7.904;2023-05-03T00:21:59;99109.44;;;6.79;64.81
46392;BME280;32098;49.448;7.904;2023-05-03T00:24:26;99035.59;;;6.24;64.80
46392;BME280;32098;49.448;7.904;2023-05-03T00:29:55;99013.09;;;6.20;64.67
46392;BME280;32098;49.448;7.904;2023-05-03T00:32:22;99102.97;;;6.81;63.93
46392;BME280;32098;49.448;7.904;2023-05-03T00:34:54;99098.38;;;6.60;64.80
46392;BME280;32098;49.448;7.904;2023-05-03T00:37:22;99096.34;;;6.62;64.70
46392;BME280;32098;49.448;7.904;2023-05-03T00:39:50;99112.91;;;6.35;65.17
46392;BME280;32098;49.448;7.904;2023-05-03T00:42:17;99096.44;;;6.54;64.37
46392;BME280;32098;49.448;7.904;2023-05-03T00:44:45;99097.72;;;6.29;65.45
46392;BME280;32098;49.448;7.904;2023-05-03T00:47:12;99020.09;;;5.98;64.96
46392;BME280;32098;49.448;7.904;2023-05-03T00:49:40;99087.00;;;6.37;64.08
46392;BME280;32098;49.448;7.904;2023-05-03T00:52:08;98980.66;;;5.66;64.59
46392;BME280;32098;49.448;7.904;2023-05-03T00:54:47;99089.38;;;6.32;64.69
46392;BME280;32098;49.448;7.904;2023-05-03T00:57:14;99054.84;;;6.03;65.25
46392;BME280;32098;49.448;7.904;2023-05-03T00:59:41;99089.56;;;6.31;65.51
46392;BME280;32098;49.448;7.904;2023-05-03T01:02:09;99026.69;;;6.02;65.71
46392;BME280;32098;49.448;7.904;2023-05-03T01:05:01;99071.72;;;6.25;65.12
46392;BME280;32098;49.448;7.904;2023-05-03T01:16:33;99070.25;;;6.22;64.08
46392;BME280;32098;49.448;7.904;2023-05-03T01:18:53;99021.78;;;5.99;64.31
46392;BME280;32098;49.448;7.904;2023-05-03T01:21:22;99036.38;;;5.95;64.73
46392;BME280;32098;49.448;7.904;2023-05-03T01:24:21;99060.50;;;6.00;64.98
46392;BME280;32098;49.448;7.904;2023-05-03T01:26:49;99062.78;;;5.88;64.95
46392;BME280;32098;49.448;7.904;2023-05-03T01:29:16;98996.28;;;5.61;64.77
46392;BME280;32098;49.448;7.904;2023-05-03T01:31:57;98955.72;;;5.37;64.64
46392;BME280;32098;49.448;7.904;2023-05-03T01:34:57;99049.19;;;6.06;64.44
46392;BME280;32098;49.448;7.904;2023-05-03T01:37:31;98990.06;;;5.54;64.65
46392;BME280;32098;49.448;7.904;2023-05-03T01:40:01;98968.56;;;5.49;64.52
46392;BME280;32098;49.448;7.904;2023-05-03T01:42:34;99031.25;;;5.93;64.13
46392;BME280;32098;49.448;7.904;2023-05-03T01:45:06;98977.78;;;5.53;64.90
46392;BME280;32098;49.448;7.904;2023-05-03T01:47:33;99016.63;;;5.60;65.32
46392;BME280;32098;49.448;7.904;2023-05-03T01:50:00;99017.22;;;5.70;64.60
46392;BME280;32098;49.448;7.904;2023-05-03T01:52:28;99053.47;;;5.92;64.65
46392;BME280;32098;49.448;7.904;2023-05-03T01:54:55;99045.22;;;5.87;65.00
46392;BME280;32098;49.448;7.904;2023-05-03T01:57:22;99043.13;;;5.83;64.57
46392;BME280;32098;49.448;7.904;2023-05-03T01:59:49;99055.81;;;5.87;64.53
46392;BME280;32098;49.448;7.904;2023-05-03T02:02:36;99061.91;;;5.73;64.80
46392;BME280;32098;49.448;7.904;2023-05-03T02:05:03;99038.47;;;5.62;65.17
46392;BME280;32098;49.448;7.904;2023-05-03T02:07:30;99060.69;;;5.84;64.36
46392;BME280;32098;49.448;7.904;2023-05-03T02:13:14;99015.22;;;5.27;64.86
46392;BME280;32098;49.448;7.904;2023-05-03T02:15:42;99083.91;;;5.59;65.03
46392;BME280;32098;49.448;7.904;2023-05-03T02:18:09;99082.47;;;5.49;66.38
46392;BME280;32098;49.448;7.904;2023-05-03T02:20:36;99052.25;;;5.35;65.97
46392;BME280;32098;49.448;7.904;2023-05-03T02:23:04;99077.03;;;5.42;65.34
46392;BME280;32098;49.448;7.904;2023-05-03T02:25:31;99096.47;;;5.57;65.46
46392;BME280;32098;49.448;7.904;2023-05-03T02:27:59;98992.94;;;4.91;65.41
46392;BME280;32098;49.448;7.904;2023-05-03T02:30:27;99092.00;;;5.58;65.27
46392;BME280;32098;49.448;7.904;2023-05-03T02:32:54;99085.97;;;5.49;65.04
46392;BME280;32098;49.448;7.904;2023-05-03T02:35:30;99090.44;;;5.49;65.96
46392;BME280;32098;49.448;7.904;2023-05-03T02:37:57;99053.69;;;5.15;65.66
46392;BME280;32098;49.448;7.904;2023-05-03T02:40:24;99083.28;;;5.26;66.77
46392;BME280;32098;49.448;7.904;2023-05-03T02:43:03;99084.31;;;5.09;66.60
46392;BME280;32098;49.448;7.904;2023-05-03T02:45:31;99028.97;;;4.69;67.47
46392;BME280;32098;49.448;7.904;2023-05-03T02:47:58;99032.78;;;4.66;67.22
46392;BME280;32098;49.448;7.904;2023-05-03T02:50:26;99063.31;;;4.77;68.30
46392;BME280;32098;49.448;7.904;2023-05-03T02:53:16;99081.69;;;4.70;68.23
46392;BME280;32098;49.448;7.904;2023-05-03T02:55:44;99089.53;;;4.56;68.18
46392;BME280;32098;49.448;7.904;2023-05-03T02:58:12;99084.44;;;4.30;68.54
46392;BME280;32098;49.448;7.904;2023-05-03T03:00:39;99051.69;;;4.39;67.76
46392;BME280;32098;49.448;7.904;2023-05-03T03:03:31;99073.31;;;4.59;67.89
46392;BME280;32098;49.448;7.904;2023-05-03T03:05:58;99037.72;;;4.15;68.13
46392;BME280;32098;49.448;7.904;2023-05-03T03:08:25;99075.34;;;4.41;68.20
46392;BME280;32098;49.448;7.904;2023-05-03T03:10:55;99076.81;;;4.43;67.46
46392;BME280;32098;49.448;7.904;2023-05-03T03:13:24;99064.59;;;4.34;67.22
46392;BME280;32098;49.448;7.904;2023-05-03T03:15:51;99042.88;;;4.08;68.71
46392;BME280;32098;49.448;7.904;2023-05-03T03:18:18;99081.28;;;4.35;68.76
46392;BME280;32098;49.448;7.904;2023-05-03T03:20:53;99035.13;;;3.98;68.68
46392;BME280;32098;49.448;7.904;2023-05-03T03:23:21;99047.84;;;3.95;69.35
46392;BME280;32098;49.448;7.904;2023-05-03T03:25:48;99086.47;;;4.12;68.96
46392;BME280;32098;49.448;7.904;2023-05-03T03:28:24;99009.06;;;3.63;69.98
46392;BME280;32098;49.448;7.904;2023-05-03T03:30:52;99071.63;;;4.03;69.53
46392;BME280;32098;49.448;7.904;2023-05-03T03:33:22;99063.19;;;3.99;68.87
46392;BME280;32098;49.448;7.904;2023-05-03T03:35:59;99036.78;;;3.83;69.10
46392;BME280;32098;49.448;7.904;2023-05-03T03:38:34;99008.56;;;3.68;70.29
46392;BME280;32098;49.448;7.904;2023-05-03T03:41:05;99073.75;;;3.91;69.13
46392;BME280;32098;49.448;7.904;2023-05-03T03:43:33;99070.16;;;3.76;69.01
46392;BME280;32098;49.448;7.904;2023-05-03T03:46:06;98995.53;;;3.34;69.87
46392;BME280;32098;49.448;7.904;2023-05-03T03:48:33;98988.91;;;3.22;70.42
46392;BME280;32098;49.448;7.904;2023-05-03T03:51:00;98940.19;;;2.84;71.01
46392;BME280;32098;49.448;7.904;2023-05-03T03:53:35;99010.22;;;3.28;70.19
46392;BME280;32098;49.448;7.904;2023-05-03T03:56:03;99063.38;;;3.58;70.47
46392;BME280;32098;49.448;7.904;2023-05-03T03:58:31;99035.13;;;3.34;71.21
46392;BME280;32098;49.448;7.904;2023-05-03T04:01:04;99064.22;;;3.66;71.05
46392;BME280;32098;49.448;7.904;2023-05-03T04:03:32;99057.91;;;3.59;70.57
46392;BME280;32098;49.448;7.904;2023-05-03T04:05:59;99065.19;;;3.57;71.07
46392;BME280;32098;49.448;7.904;2023-05-03T04:08:33;98880.66;;;2.49;70.69
46392;BME280;32098;49.448;7.904;2023-05-03T04:11:01;98966.81;;;3.07;70.44
46392;BME280;32098;49.448;7.904;2023-05-03T04:13:33;99074.09;;;3.64;70.57
46392;BME280;32098;49.448;7.904;2023-05-03T04:16:01;99029.50;;;3.29;70.13
46392;BME280;32098;49.448;7.904;2023-05-03T04:18:30;99050.63;;;3.29;69.77
46392;BME280;32098;49.448;7.904;2023-05-03T04:20:59;99076.25;;;3.53;70.19
46392;BME280;32098;49.448;7.904;2023-05-03T04:23:27;99050.94;;;3.10;71.71
46392;BME280;32098;49.448;7.904;2023-05-03T04:25:53;98955.50;;;2.64;71.22
46392;BME280;32098;49.448;7.904;2023-05-03T04:28:32;98954.53;;;2.81;70.35
46392;BME280;32098;49.448;7.904;2023-05-03T04:31:00;98965.56;;;2.77;69.76
46392;BME280;32098;49.448;7.904;2023-05-03T04:33:29;98954.53;;;2.65;70.33
46392;BME280;32098;49.448;7.904;2023-05-03T04:36:01;99072.56;;;3.29;70.38
46392;BME280;32098;49.448;7.904;2023-05-03T04:38:28;99049.47;;;3.31;70.56
46392;BME280;32098;49.448;7.904;2023-05-03T04:40:57;99079.72;;;3.69;70.87
46392;BME280;32098;49.448;7.904;2023-05-03T04:43:26;99045.53;;;3.68;70.28
46392;BME280;32098;49.448;7.904;2023-05-03T04:45:53;99058.94;;;4.53;89.39
46392;BME280;32098;49.448;7.904;2023-05-03T04:48:23;99046.56;;;5.15;92.12
46392;BME280;32098;49.448;7.904;2023-05-03T04:50:51;98981.38;;;5.14;81.31
46392;BME280;32098;49.448;7.904;2023-05-03T04:53:19;99042.69;;;5.94;74.89
46392;BME280;32098;49.448;7.904;2023-05-03T04:55:56;99051.31;;;6.25;71.31
46392;BME280;32098;49.448;7.904;2023-05-03T04:58:22;99007.41;;;5.93;64.09
46392;BME280;32098;49.448;7.904;2023-05-03T05:01:02;99012.88;;;5.55;62.88
46392;BME280;32098;49.448;7.904;2023-05-03T05:03:30;98991.34;;;5.04;64.52
46392;BME280;32098;49.448;7.904;2023-05-03T05:06:01;99076.09;;;5.35;65.50
46392;BME280;32098;49.448;7.904;2023-05-03T05:08:30;99010.31;;;4.93;65.64
46392;BME280;32098;49.448;7.904;2023-05-03T05:10:57;98947.56;;;4.40;67.00
46392;BME280;32098;49.448;7.904;2023-05-03T05:13:28;99078.09;;;4.94;67.87
46392;BME280;32098;49.448;7.904;2023-05-03T05:19:01;99045.00;;;4.98;67.95
46392;BME280;32098;49.448;7.904;2023-05-03T05:21:28;99023.66;;;5.00;68.51
46392;BME280;32098;49.448;7.904;2023-05-03T05:23:57;99025.97;;;5.25;68.52
46392;BME280;32098;49.448;7.904;2023-05-03T05:26:26;99063.16;;;5.63;67.20
46392;BME280;32098;49.448;7.904;2023-05-03T05:29:15;99077.72;;;6.04;66.81
46392;BME280;32098;49.448;7.904;2023-05-03T05:31:47;99059.91;;;6.13;65.67
46392;BME280;32098;49.448;7.904;2023-05-03T05:34:14;99056.56;;;6.33;65.21
46392;BME280;32098;49.448;7.904;2023-05-03T05:36:43;99059.19;;;6.77;64.94
46392;BME280;32098;49.448;7.904;2023-05-03T05:39:14;99050.81;;;7.24;63.59
46392;BME280;32098;49.448;7.904;2023-05-03T05:41:42;99009.88;;;7.40;61.63
46392;BME280;32098;49.448;7.904;2023-05-03T05:44:29;99030.78;;;7.91;61.34
46392;BME280;32098;49.448;7.904;2023-05-03T05:46:57;99033.81;;;8.10;60.09
46392;BME280;32098;49.448;7.904;2023-05-03T05:49:28;99074.75;;;8.43;60.68
46392;BME280;32098;49.448;7.904;2023-05-03T05:51:55;99026.69;;;8.17;57.77
46392;BME280;32098;49.448;7.904;2023-05-03T05:54:26;99038.91;;;8.73;57.58
46392;BME280;32098;49.448;7.904;2023-05-03T05:56:56;99015.72;;;8.67;56.74
46392;BME280;32098;49.448;7.904;2023-05-03T05:59:24;99031.72;;;9.14;57.47
46392;BME280;32098;49.448;7.904;2023-05-03T06:01:52;99059.28;;;9.61;56.81
46392;BME280;32098;49.448;7.904;2023-05-03T06:04:19;99069.41;;;10.11;55.26
46392;BME280;32098;49.448;7.904;2023-05-03T06:06:48;99028.06;;;10.60;52.94
46392;BME280;32098;49.448;7.904;2023-05-03T06:09:15;98989.53;;;10.87;50.58
46392;BME280;32098;49.448;7.904;2023-05-03T06:11:52;99010.91;;;11.31;49.73
46392;BME280;32098;49.448;7.904;2023-05-03T06:14:20;98991.34;;;11.37;49.64
46392;BME280;32098;49.448;7.904;2023-05-03T06:16:49;98960.41;;;11.10;48.90
46392;BME280;32098;49.448;7.904;2023-05-03T06:19:16;99056.00;;;11.90;50.61
46392;BME280;32098;49.448;7.904;2023-05-03T06:21:47;99069.50;;;12.02;47.63
46392;BME280;32098;49.448;7.904;2023-05-03T06:24:21;99066.75;;;12.33;48.48
46392;BME280;32098;49.448;7.904;2023-05-03T06:26:52;99026.50;;;12.39;48.83
46392;BME280;32098;49.448;7.904;2023-05-03T06:29:19;98966.78;;;11.96;47.10
46392;BME280;32098;49.448;7.904;2023-05-03T06:35:30;99076.44;;;11.02;48.92
46392;BME280;32098;49.448;7.904;2023-05-03T06:38:16;99080.97;;;10.89;51.72
46392;BME280;32098;49.448;7.904;2023-05-03T06:40:44;99081.16;;;11.51;50.70
46392;BME280;32098;49.448;7.904;2023-05-03T06:43:15;99058.28;;;12.11;49.24
46392;BME280;32098;49.448;7.904;2023-05-03T06:45:50;99025.56;;;11.85;47.57
46392;BME280;32098;49.448;7.904;2023-05-03T06:48:17;99054.31;;;12.63;47.82
46392;BME280;32098;49.448;7.904;2023-05-03T06:54:26;99072.13;;;13.60;47.82
46392;BME280;32098;49.448;7.904;2023-05-03T06:56:53;99071.59;;;13.03;46.13
46392;BME280;32098;49.448;7.904;2023-05-03T06:59:37;99048.97;;;11.64;48.63
46392;BME280;32098;49.448;7.904;2023-05-03T07:06:35;99072.25;;;11.13;52.26
46392;BME280;32098;49.448;7.904;2023-05-03T07:09:44;99063.75;;;10.78;51.44
46392;BME280;32098;49.448;7.904;2023-05-03T07:12:11;99057.25;;;11.12;50.73
46392;BME280;32098;49.448;7.904;2023-05-03T07:14:38;99068.81;;;10.99;52.69
46392;BME280;32098;49.448;7.904;2023-05-03T07:17:07;99058.00;;;11.26;52.16
46392;BME280;32098;49.448;7.904;2023-05-03T07:19:35;99050.16;;;12.24;50.34
46392;BME280;32098;49.448;7.904;2023-05-03T07:22:30;99065.19;;;12.50;48.55
46392;BME280;32098;49.448;7.904;2023-05-03T07:25:12;99031.94;;;11.84;48.92
46392;BME280;32098;49.448;7.904;2023-05-03T07:27:40;98958.91;;;10.83;50.07
46392;BME280;32098;49.448;7.904;2023-05-03T07:30:27;99059.63;;;11.40;51.64
46392;BME280;32098;49.448;7.904;2023-05-03T07:32:55;99062.38;;;11.20;51.47
46392;BME280;32098;49.448;7.904;2023-05-03T07:35:22;98984.03;;;10.69;51.19
46392;BME280;32098;49.448;7.904;2023-05-03T07:37:49;99005.75;;;10.85;51.55
46392;BME280;32098;49.448;7.904;2023-05-03T07:40:16;99005.31;;;10.95;52.06
46392;BME280;32098;49.448;7.904;2023-05-03T07:43:00;99022.16;;;10.95;52.42
46392;BME280;32098;49.448;7.904;2023-05-03T07:45:41;99050.19;;;10.73;52.11
46392;BME280;32098;49.448;7.904;2023-05-03T07:48:08;99041.50;;;10.91;53.46
46392;BME280;32098;49.448;7.904;2023-05-03T07:50:34;99013.63;;;10.74;52.05
46392;BME280;32098;49.448;7.904;2023-05-03T07:53:01;99055.22;;;10.50;53.13
46392;BME280;32098;49.448;7.904;2023-05-03T07:55:33;99047.50;;;11.37;53.33
46392;BME280;32098;49.448;7.904;2023-05-03T07:58:02;98987.69;;;12.06;49.67
46392;BME280;32098;49.448;7.904;2023-05-03T08:00:30;98997.91;;;12.15;49.15
46392;BME280;32098;49.448;7.904;2023-05-03T08:02:58;99000.53;;;12.40;49.22
46392;BME280;32098;49.448;7.904;2023-05-03T08:08:45;99037.38;;;12.02;49.52
46392;BME280;32098;49.448;7.904;2023-05-03T08:11:12;99052.53;;;12.57;48.73
46392;BME280;32098;49.448;7.904;2023-05-03T08:13:39;99052.91;;;13.45;48.58
46392;BME280;32098;49.448;7.904;2023-05-03T08:16:22;99041.28;;;12.67;49.64
46392;BME280;32098;49.448;7.904;2023-05-03T08:18:50;99062.66;;;12.06;51.08
46392;BME280;32098;49.448;7.904;2023-05-03T08:21:17;99024.84;;;11.96;50.02
46392;BME280;32098;49.448;7.904;2023-05-03T08:23:44;99056.59;;;12.17;50.13
46392;BME280;32098;49.448;7.904;2023-05-03T08:26:11;99056.66;;;12.10;51.61
46392;BME280;32098;49.448;7.904;2023-05-03T08:28:40;99005.66;;;11.49;50.82
46392;BME280;32098;49.448;7.904;2023-05-03T08:31:10;99029.41;;;11.26;51.55
46392;BME280;32098;49.448;7.904;2023-05-03T08:33:48;99034.84;;;11.51;52.73
46392;BME280;32098;49.448;7.904;2023-05-03T08:36:15;98978.38;;;11.34;52.07
46392;BME280;32098;49.448;7.904;2023-05-03T08:38:43;99042.16;;;11.31;53.05
46392;BME280;32098;49.448;7.904;2023-05-03T08:44:31;99046.13;;;12.94;48.91
46392;BME280;32098;49.448;7.904;2023-05-03T08:47:05;99043.66;;;13.59;47.59
46392;BME280;32098;49.448;7.904;2023-05-03T08:52:39;99039.66;;;14.14;46.29
46392;BME280;32098;49.448;7.904;2023-05-03T08:55:15;99030.81;;;14.37;46.08
46392;BME280;32098;49.448;7.904;2023-05-03T08:57:42;99035.56;;;14.81;44.96
46392;BME280;32098;49.448;7.904;2023-05-03T09:00:33;99038.59;;;14.85;44.84
46392;BME280;32098;49.448;7.904;2023-05-03T09:02:59;99028.56;;;14.69;45.38
46392;BME280;32098;49.448;7.904;2023-05-03T09:06:17;98936.06;;;14.81;44.53
46392;BME280;32098;49.448;7.904;2023-05-03T09:09:39;98933.78;;;14.62;44.17
46392;BME280;32098;49.448;7.904;2023-05-03T09:12:41;99032.94;;;15.38;43.47
46392;BME280;32098;49.448;7.904;2023-05-03T09:18:20;99037.19;;;14.01;46.54
46392;BME280;32098;49.448;7.904;2023-05-03T09:20:47;99040.75;;;14.13;47.24
46392;BME280;32098;49.448;7.904;2023-05-03T09:23:30;99032.72;;;15.00;45.30
46392;BME280;32098;49.448;7.904;2023-05-03T09:25:57;99007.97;;;13.40;47.82
46392;BME280;32098;49.448;7.904;2023-05-03T09:28:25;99002.50;;;12.69;49.33
46392;BME280;32098;49.448;7.904;2023-05-03T09:31:04;98924.13;;;12.56;48.95
46392;BME280;32098;49.448;7.904;2023-05-03T09:36:56;99030.94;;;12.52;51.74
46392;BME280;32098;49.448;7.904;2023-05-03T09:39:29;98993.66;;;12.26;49.30
46392;BME280;32098;49.448;7.904;2023-05-03T09:41:57;99025.38;;;12.72;50.12
46392;BME280;32098;49.448;7.904;2023-05-03T09:44:56;99026.13;;;12.36;51.17
46392;BME280;32098;49.448;7.904;2023-05-03T09:47:52;99016.97;;;12.50;52.15
46392;BME280;32098;49.448;7.904;2023-05-03T09:50:22;99012.22;;;12.27;50.63
46392;BME280;32098;49.448;7.904;2023-05-03T09:52:51;98925.28;;;11.87;51.24
46392;BME280;32098;49.448;7.904;2023-05-03T09:55:19;98925.00;;;12.31;51.11
46392;BME280;32098;49.448;7.904;2023-05-03T09:57:46;99024.97;;;13.34;49.51
46392;BME280;32098;49.448;7.904;2023-05-03T10:00:13;99012.38;;;13.64;49.44
46392;BME280;32098;49.448;7.904;2023-05-03T10:02:45;98991.03;;;13.70;49.37
46392;BME280;32098;49.448;7.904;2023-05-03T10:05:13;99017.16;;;13.33;48.79
46392;BME280;32098;49.448;7.904;2023-05-03T10:07:44;99005.97;;;13.06;50.73
46392;BME280;32098;49.448;7.904;2023-05-03T10:10:11;98986.28;;;12.64;51.00
46392;BME280;32098;49.448;7.904;2023-05-03T10:13:06;99016.50;;;12.53;49.93
46392;BME280;32098;49.448;7.904;2023-05-03T10:15:35;98993.09;;;12.96;49.58
46392;BME280;32098;49.448;7.904;2023-05-03T10:18:04;98979.63;;;13.33;47.74
46392;BME280;32098;49.448;7.904;2023-05-03T10:20:40;99016.91;;;13.23;49.25
46392;BME280;32098;49.448;7.904;2023-05-03T10:23:12;98998.16;;;13.46;47.84
46392;BME280;32098;49.448;7.904;2023-05-03T10:28:33;98994.88;;;13.32;50.28
46392;BME280;32098;49.448;7.904;2023-05-03T10:31:01;98946.34;;;13.34;47.70
46392;BME280;32098;49.448;7.904;2023-05-03T10:33:29;98999.00;;;13.99;46.41
46392;BME280;32098;49.448;7.904;2023-05-03T10:35:57;98973.47;;;14.08;47.70
46392;BME280;32098;49.448;7.904;2023-05-03T10:38:33;98950.56;;;12.70;46.60
46392;BME280;32098;49.448;7.904;2023-05-03T10:44:26;99002.63;;;13.11;49.93
46392;BME280;32098;49.448;7.904;2023-05-03T10:46:54;98970.88;;;13.37;47.88
46392;BME280;32098;49.448;7.904;2023-05-03T10:49:22;98951.03;;;12.79;50.03
46392;BME280;32098;49.448;7.904;2023-05-03T10:51:53;98779.38;;;12.44;49.69
46392;BME280;32098;49.448;7.904;2023-05-03T10:54:22;98926.16;;;13.73;49.63
46392;BME280;32098;49.448;7.904;2023-05-03T10:56:51;98975.19;;;14.38;49.17
46392;BME280;32098;49.448;7.904;2023-05-03T10:59:45;98949.56;;;13.54;48.37
46392;BME280;32098;49.448;7.904;2023-05-03T11:05:19;98961.22;;;13.48;49.07
46392;BME280;32098;49.448;7.904;2023-05-03T11:08:16;98973.78;;;13.77;49.86
46392;BME280;32098;49.448;7.904;2023-05-03T11:10:44;98970.41;;;14.16;49.49
46392;BME280;32098;49.448;7.904;2023-05-03T11:13:11;98947.72;;;14.24;47.89
46392;BME280;32098;49.448;7.904;2023-05-03T11:24:56;98952.66;;;13.92;49.51
46392;BME280;32098;49.448;7.904;2023-05-03T11:27:23;98954.41;;;13.75;48.06
46392;BME280;32098;49.448;7.904;2023-05-03T11:29:50;98952.78;;;13.33;49.47
46392;BME280;32098;49.448;7.904;2023-05-03T11:32:42;98936.53;;;14.15;46.74
46392;BME280;32098;49.448;7.904;2023-05-03T11:35:11;98877.56;;;14.20;45.89
46392;BME280;32098;49.448;7.904;2023-05-03T11:37:40;98925.09;;;14.71;46.38
46392;BME280;32098;49.448;7.904;2023-05-03T11:40:43;98933.38;;;14.07;47.01
46392;BME280;32098;49.448;7.904;2023-05-03T11:43:15;98947.25;;;13.69;47.57
46392;BME280;32098;49.448;7.904;2023-05-03T11:45:53;98934.91;;;13.91;47.67
46392;BME280;32098;49.448;7.904;2023-05-03T11:48:42;98931.88;;;13.99;49.03
46392;BME280;32098;49.448;7.904;2023-05-03T11:51:10;98892.06;;;13.96;46.78
46392;BME280;32098;49.448;7.904;2023-05-03T11:53:39;98910.78;;;14.43;44.99
46392;BME280;32098;49.448;7.904;2023-05-03T11:56:27;98922.81;;;14.91;44.98
46392;BME280;32098;49.448;7.904;2023-05-03T11:58:57;98881.56;;;13.83;48.78
46392;BME280;32098;49.448;7.904;2023-05-03T12:01:27;98923.44;;;14.30;46.98
46392;BME280;32098;49.448;7.904;2023-05-03T12:03:58;98921.13;;;13.99;48.79
46392;BME280;32098;49.448;7.904;2023-05-03T12:06:33;98838.78;;;13.24;47.07
46392;BME280;32098;49.448;7.904;2023-05-03T12:09:03;98878.88;;;13.60;47.55
46392;BME280;32098;49.448;7.904;2023-05-03T12:11:42;98871.84;;;13.47;45.27
46392;BME280;32098;49.448;7.904;2023-05-03T12:14:13;98865.06;;;13.33;48.03
46392;BME280;32098;49.448;7.904;2023-05-03T12:17:05;98917.78;;;13.28;49.04
46392;BME280;32098;49.448;7.904;2023-05-03T12:22:54;98905.53;;;13.43;49.31
46392;BME280;32098;49.448;7.904;2023-05-03T12:25:24;98923.72;;;13.30;47.81
46392;BME280;32098;49.448;7.904;2023-05-03T12:28:00;98758.75;;;12.74;50.36
46392;BME280;32098;49.448;7.904;2023-05-03T12:30:49;98890.63;;;13.47;47.90
46392;BME280;32098;49.448;7.904;2023-05-03T12:33:34;98905.66;;;13.48;48.75
46392;BME280;32098;49.448;7.904;2023-05-03T12:36:23;98897.66;;;13.72;49.21
46392;BME280;32098;49.448;7.904;2023-05-03T12:38:51;98904.16;;;14.22;47.52
46392;BME280;32098;49.448;7.904;2023-05-03T12:41:22;98904.84;;;14.29;46.64
46392;BME280;32098;49.448;7.904;2023-05-03T12:43:54;98901.50;;;14.10;50.00
46392;BME280;32098;49.448;7.904;2023-05-03T12:46:43;98888.06;;;13.99;47.57
46392;BME280;32098;49.448;7.904;2023-05-03T12:49:11;98880.38;;;13.56;49.22
46392;BME280;32098;49.448;7.904;2023-05-03T12:55:25;98881.63;;;13.42;49.14
46392;BME280;32098;49.448;7.904;2023-05-03T12:58:12;98873.69;;;13.47;49.52
46392;BME280;32098;49.448;7.904;2023-05-03T13:00:59;98878.19;;;13.53;49.18
46392;BME280;32098;49.448;7.904;2023-05-03T13:03:29;98882.72;;;13.64;48.26
46392;BME280;32098;49.448;7.904;2023-05-03T13:06:00;98866.00;;;13.39;47.81
46392;BME280;32098;49.448;7.904;2023-05-03T13:08:39;98812.34;;;13.16;49.49
46392;BME280;32098;49.448;7.904;2023-05-03T13:11:15;98861.34;;;13.92;48.89
46392;BME280;32098;49.448;7.904;2023-05-03T13:13:55;98867.53;;;13.81;47.26
46392;BME280;32098;49.448;7.904;2023-05-03T13:19:28;98874.53;;;14.05;45.90
46392;BME280;32098;49.448;7.904;2023-05-03T13:21:55;98856.47;;;13.78;47.48
46392;BME280;32098;49.448;7.904;2023-05-03T13:24:46;98853.88;;;14.06;45.35
46392;BME280;32098;49.448;7.904;2023-05-03T13:27:15;98837.53;;;13.84;46.68
46392;BME280;32098;49.448;7.904;2023-05-03T13:29:43;98845.34;;;13.97;46.96
46392;BME280;32098;49.448;7.904;2023-05-03T13:32:14;98840.91;;;13.91;46.24
46392;BME280;32098;49.448;7.904;2023-05-03T13:34:42;98842.44;;;13.99;46.19
46392;BME280;32098;49.448;7.904;2023-05-03T13:37:12;98682.66;;;13.22;46.96
46392;BME280;32098;49.448;7.904;2023-05-03T13:39:46;98728.13;;;14.03;45.78
46392;BME280;32098;49.448;7.904;2023-05-03T13:42:15;98828.47;;;14.25;45.19
46392;BME280;32098;49.448;7.904;2023-05-03T13:45:02;98825.13;;;14.18;46.21
46392;BME280;32098;49.448;7.904;2023-05-03T13:47:42;98728.13;;;13.63;47.10
46392;BME280;32098;49.448;7.904;2023-05-03T13:50:16;98788.13;;;13.97;47.09
46392;BME280;32098;49.448;7.904;2023-05-03T13:52:43;98768.78;;;13.95;46.22
46392;BME280;32098;49.448;7.904;2023-05-03T14:01:42;98804.50;;;13.95;45.95
46392;BME280;32098;49.448;7.904;2023-05-03T14:04:10;98815.56;;;14.39;46.60
46392;BME280;32098;49.448;7.904;2023-05-03T14:06:37;98781.38;;;14.06;45.40
46392;BME280;32098;49.448;7.904;2023-05-03T14:09:07;98820.00;;;14.45;46.12
46392;BME280;32098;49.448;7.904;2023-05-03T14:11:35;98809.19;;;14.68;45.06
46392;BME280;32098;49.448;7.904;2023-05-03T14:14:01;98755.50;;;14.73;43.66
46392;BME280;32098;49.448;7.904;2023-05-03T14:16:29;98775.41;;;14.88;44.32
46392;BME280;32098;49.448;7.904;2023-05-03T14:19:10;98806.66;;;14.78;45.93
46392;BME280;32098;49.448;7.904;2023-05-03T14:21:39;98751.97;;;14.27;45.49
46392;BME280;32098;49.448;7.904;2023-05-03T14:24:07;98795.44;;;14.81;45.24
46392;BME280;32098;49.448;7.904;2023-05-03T14:26:34;98712.59;;;14.21;45.38
46392;BME280;32098;49.448;7.904;2023-05-03T14:29:02;98799.69;;;15.10;43.61
46392;BME280;32098;49.448;7.904;2023-05-03T14:31:48;98768.03;;;14.67;44.28
46392;BME280;32098;49.448;7.904;2023-05-03T14:34:16;98811.53;;;14.64;43.96
46392;BME280;32098;49.448;7.904;2023-05-03T14:36:43;98683.31;;;14.20;43.71
46392;BME280;32098;49.448;7.904;2023-05-03T14:39:10;98639.06;;;13.94;44.94
46392;BME280;32098;49.448;7.904;2023-05-03T14:41:40;98736.41;;;14.29;44.35
46392;BME280;32098;49.448;7.904;2023-05-03T14:44:11;98773.84;;;14.76;43.48
46392;BME280;32098;49.448;7.904;2023-05-03T14:46:38;98754.09;;;14.70;43.97
46392;BME280;32098;49.448;7.904;2023-05-03T14:49:05;98662.06;;;14.18;44.18
46392;BME280;32098;49.448;7.904;2023-05-03T14:51:32;98778.13;;;14.77;45.31
46392;BME280;32098;49.448;7.904;2023-05-03T14:54:00;98679.97;;;14.13;45.55